Date,TemperatureHighF,TemperatureAvgF,TemperatureLowF,DewpointHighF,DewpointAvgF,DewpointLowF,HumidityHigh,HumidityAvg,HumidityLow,PressureMaxIn,PressureMinIn,WindSpeedMaxMPH,WindSpeedAvgMPH,GustSpeedMaxMPH,PrecipitationSumIn
2013-1-1,37.7,33.3,31.3,26.3,24.8,22.8,80,71,63,30.44,30.34,29,14,29,0.00
2013-1-2,37.9,34.2,32.6,25.8,24.4,23.0,70,67,61,30.34,30.20,33,17,33,0.00
2013-1-3,36.6,34.5,32.2,32.9,24.8,22.4,90,68,57,30.25,30.14,30,12,30,0.00
2013-1-4,43.2,37.0,34.1,38.0,32.8,26.9,97,85,70,30.34,30.17,21,6,21,0.01
2013-1-5,37.1,35.3,33.7,33.2,29.6,26.8,92,80,73,30.23,30.16,24,8,24,0.03
2013-1-6,42.7,37.9,33.7,41.6,36.5,32.4,97,95,91,30.25,30.05,7,1,7,0.21
2013-1-7,51.4,47.6,42.5,49.0,45.7,41.4,97,93,90,30.20,29.97,20,7,20,0.18
2013-1-8,54.2,50.4,44.8,49.6,47.3,43.8,100,89,82,30.19,29.89,24,7,24,0.11
2013-1-9,51.5,42.9,35.1,46.6,40.1,34.1,96,90,77,29.97,29.69,21,5,21,0.18
2013-1-10,38.2,35.7,32.8,36.1,34.4,31.8,97,95,89,30.09,29.97,10,2,10,0.13
2013-1-11,38.9,32.2,27.1,33.9,30.1,26.0,100,93,69,30.30,30.09,6,1,6,0.01
2013-1-12,35.4,28.2,23.6,30.9,26.9,22.9,100,95,82,30.40,30.29,8,1,8,0.00
2013-1-13,34.4,29.3,27.1,27.8,26.4,24.5,97,89,74,30.49,30.39,7,1,7,0.00
2013-1-14,32.5,30.1,28.0,31.7,28.3,25.7,97,93,88,30.56,30.48,7,1,7,0.00
2013-1-15,36.5,34.4,32.4,35.1,33.4,31.6,100,96,92,30.66,30.56,7,1,7,0.02
2013-1-16,36.1,34.2,33.0,34.2,32.9,31.9,97,95,92,30.65,30.48,5,1,5,0.00
2013-1-17,43.9,35.0,28.8,33.4,30.2,26.4,100,83,63,30.48,30.31,12,2,12,0.00
2013-1-18,43.9,30.6,25.3,35.9,28.5,24.3,100,92,73,30.32,30.25,5,1,5,0.00
2013-1-19,44.1,30.0,23.6,39.6,28.8,22.8,100,96,78,30.34,30.26,4,0,4,0.00
2013-1-20,41.2,30.9,22.3,31.7,26.5,21.3,100,85,62,30.35,30.23,14,3,14,0.01
2013-1-21,42.5,30.0,23.6,32.4,26.9,22.8,100,89,66,30.28,30.15,18,2,18,0.00
2013-1-22,40.2,30.2,21.5,30.2,24.0,20.5,96,79,56,30.16,29.93,23,6,23,0.00
2013-1-23,36.0,33.9,32.1,33.6,28.5,23.7,97,81,64,30.20,29.89,21,5,21,0.26
2013-1-24,43.5,37.9,33.9,41.5,37.0,33.6,100,97,87,30.23,30.09,6,1,6,0.28
2013-1-25,51.6,44.7,41.2,49.2,44.3,40.4,100,99,90,30.12,29.94,8,1,8,0.15
2013-1-26,44.9,41.8,38.4,42.8,39.9,37.1,100,93,83,30.08,29.92,12,4,12,0.08
2013-1-27,41.7,39.8,38.5,39.7,38.4,36.9,96,95,90,30.14,30.03,13,4,13,0.23
2013-1-28,43.0,41.0,39.1,42.1,40.1,38.1,100,97,95,30.20,30.07,12,4,12,0.69
2013-1-29,45.9,44.1,41.9,45.1,43.4,41.3,100,98,93,30.45,30.19,13,5,13,0.52
2013-1-30,48.7,45.5,42.7,46.7,44.1,41.4,100,95,91,30.44,30.40,15,7,15,0.20
2013-1-31,52.0,47.6,44.3,47.1,45.4,44.1,100,92,79,30.43,30.31,7,2,7,0.01
2013-2-1,52.4,46.6,42.5,46.1,44.3,39.1,100,92,78,30.35,30.25,9,3,9,0.00
2013-2-2,54.1,46.1,36.4,43.9,39.6,35.4,97,79,60,30.28,30.24,15,4,15,0.00
2013-2-3,46.5,42.3,36.9,43.4,41.0,35.7,100,95,88,30.33,30.21,5,1,5,0.00
2013-2-4,53.1,45.4,39.5,44.0,42.0,39.1,100,88,69,30.23,29.93,6,1,6,0.00
2013-2-5,51.0,46.4,43.9,45.1,42.7,41.1,93,87,75,30.03,29.90,18,6,18,0.05
2013-2-6,50.7,46.0,42.5,43.5,41.4,39.1,91,84,68,30.08,29.83,20,4,20,0.12
2013-2-7,48.9,41.6,33.0,39.7,37.7,32.4,100,87,63,30.13,29.90,10,2,10,0.24
2013-2-8,48.2,36.5,29.0,39.9,34.2,29.0,100,92,67,30.27,30.13,8,2,8,0.00
2013-2-9,42.5,39.1,34.8,41.3,37.8,33.3,97,95,91,30.29,30.25,6,2,6,0.01
2013-2-10,47.2,42.3,39.1,41.0,38.6,36.8,100,87,74,30.34,30.29,7,2,7,0.00
2013-2-11,44.7,42.6,40.9,42.1,39.2,36.3,95,88,80,30.37,30.30,9,2,9,0.01
2013-2-12,55.1,48.4,44.3,47.3,44.8,42.0,94,88,74,30.45,30.37,12,4,12,0.00
2013-2-13,49.4,47.6,44.0,45.4,43.5,40.3,94,86,77,30.49,30.41,7,2,7,0.00
2013-2-14,51.9,44.1,39.3,44.3,41.0,38.3,97,89,74,30.55,30.49,6,1,6,0.00
2013-2-15,61.2,47.4,38.7,45.7,42.3,38.3,100,84,54,30.49,30.17,13,3,13,0.01
2013-2-16,51.2,44.0,38.6,46.9,41.3,36.6,100,91,73,30.26,30.19,10,3,10,0.05
2013-2-17,47.2,40.8,33.7,38.6,36.1,31.9,95,84,61,30.28,30.08,6,1,6,0.00
2013-2-18,46.7,40.0,32.8,37.1,34.8,31.8,97,83,63,30.08,29.73,12,2,12,0.00
2013-2-19,52.9,42.7,34.7,40.5,36.9,32.5,96,81,48,29.98,29.69,12,2,12,0.12
2013-2-20,47.4,40.6,34.1,40.3,37.6,32.6,96,89,72,30.08,29.98,17,3,17,0.07
2013-2-21,44.2,41.5,38.6,40.5,38.8,36.4,94,90,84,30.17,30.07,15,7,15,0.04
2013-2-22,45.2,43.0,36.6,43.9,40.1,34.8,95,89,81,30.15,29.86,24,9,24,0.43
2013-2-23,46.4,40.0,36.3,39.6,36.1,34.4,94,86,68,30.42,30.05,14,4,14,0.01
2013-2-24,51.2,42.8,36.1,38.9,35.5,32.6,94,77,51,30.42,30.03,20,3,20,0.00
2013-2-25,47.4,42.2,37.9,41.4,37.9,34.0,94,85,63,30.37,29.99,20,5,20,0.24
2013-2-26,49.6,41.5,32.3,38.7,35.7,31.3,100,81,57,30.38,30.23,7,1,7,0.00
2013-2-27,52.6,47.0,41.4,45.1,41.0,37.2,97,80,63,30.29,30.22,12,2,12,0.07
2013-2-28,55.4,51.5,45.2,52.6,49.5,44.4,100,93,88,30.41,30.18,16,5,16,0.15
2013-3-1,59.9,55.1,52.6,51.5,50.5,49.6,91,85,72,30.43,30.29,15,4,15,0.00
2013-3-2,55.2,49.9,42.1,50.2,46.6,38.8,97,89,77,30.30,30.14,14,2,14,0.10
2013-3-3,51.7,40.9,32.1,39.6,35.2,31.1,100,82,52,30.30,30.23,9,1,9,0.01
2013-3-4,55.3,43.0,30.4,34.2,29.0,25.4,97,63,35,30.24,29.90,20,5,20,0.00
2013-3-5,45.3,41.3,35.9,42.0,35.2,26.4,95,80,53,29.90,29.63,15,3,15,0.30
2013-3-6,44.1,41.9,39.9,42.0,39.6,36.9,96,91,84,29.95,29.53,17,5,17,0.33
2013-3-7,56.2,44.4,31.7,40.5,36.1,30.7,100,75,44,30.04,29.95,12,2,12,0.00
2013-3-8,58.1,43.7,30.0,39.7,35.1,29.0,100,75,37,30.20,30.01,10,3,10,0.00
2013-3-9,60.7,44.0,28.6,41.9,35.6,27.6,100,76,36,30.47,30.20,6,1,6,0.00
2013-3-10,49.4,42.7,34.3,43.1,38.7,32.8,95,86,72,30.49,30.40,4,1,4,0.00
2013-3-11,53.9,48.6,43.8,49.8,45.8,41.7,95,90,82,30.41,30.22,7,1,7,0.03
2013-3-12,60.7,53.4,48.7,50.3,48.4,45.4,96,84,64,30.22,30.13,13,3,13,0.00
2013-3-13,64.9,56.6,49.2,50.2,47.9,45.5,91,73,54,30.21,30.07,6,1,6,0.00
2013-3-14,59.6,53.0,46.7,49.1,46.3,40.4,97,79,52,30.19,30.02,16,3,16,0.00
2013-3-15,64.9,55.7,48.7,50.8,48.1,44.9,92,77,50,30.21,30.13,11,3,11,0.00
2013-3-16,49.9,46.3,38.5,47.0,43.3,36.9,95,89,80,30.15,29.99,16,4,16,0.17
2013-3-17,49.2,42.5,37.2,37.5,34.8,31.5,93,75,53,30.28,30.12,12,4,12,0.00
2013-3-18,53.2,43.7,36.7,38.2,36.2,33.9,91,76,53,30.27,30.14,12,2,12,0.00
2013-3-19,52.9,44.0,37.7,44.3,37.7,31.8,97,80,52,30.14,29.66,13,3,13,0.57
2013-3-20,52.8,48.1,39.8,50.4,43.1,33.4,100,83,63,30.14,29.51,21,7,21,0.40
2013-3-21,49.9,41.7,37.9,38.5,35.1,31.4,91,78,50,30.29,30.14,15,5,15,0.03
2013-3-22,46.0,38.0,33.5,39.0,34.3,30.4,97,87,61,30.38,30.28,15,2,15,0.16
2013-3-23,50.6,39.3,31.7,37.0,32.4,27.1,100,79,44,30.38,30.26,7,1,7,0.01
2013-3-24,53.7,44.7,34.5,35.2,32.4,29.9,90,65,43,30.26,30.07,20,6,20,0.00
2013-3-25,60.4,51.6,41.0,37.0,32.1,27.5,74,48,35,30.07,29.89,17,5,17,0.00
2013-3-26,52.2,47.6,39.6,45.9,42.7,35.3,92,83,60,29.97,29.94,6,0,6,0.00
2013-3-27,65.7,51.6,38.0,50.6,44.2,37.2,100,79,45,29.97,29.87,12,2,12,0.02
2013-3-28,65.3,54.2,44.1,50.2,46.4,42.8,100,77,45,30.11,29.97,10,2,10,0.00
2013-3-29,69.3,57.5,49.1,51.2,47.9,45.2,94,73,44,30.19,30.10,9,2,9,0.00
2013-3-30,76.8,59.0,44.0,50.9,46.9,42.4,95,68,37,30.17,29.94,12,3,12,0.00
2013-3-31,75.5,61.1,45.4,52.9,47.8,42.1,90,64,37,29.98,29.87,12,3,12,0.00
2013-4-1,63.9,57.2,50.4,52.7,49.8,47.3,91,77,62,30.15,29.98,12,3,12,0.00
2013-4-2,65.5,56.0,50.5,50.6,48.3,46.6,88,76,55,30.19,30.10,9,2,9,0.00
2013-4-3,65.0,53.8,41.2,51.5,47.6,40.1,100,81,55,30.15,29.89,8,2,8,0.00
2013-4-4,60.2,55.8,52.6,56.5,51.8,48.5,95,87,74,29.89,29.67,20,4,20,0.26
2013-4-5,59.1,53.8,50.2,50.9,49.4,47.8,94,85,69,29.92,29.79,20,8,20,0.23
2013-4-6,56.5,49.9,43.9,49.3,45.7,38.3,96,86,58,29.98,29.70,20,5,20,0.89
2013-4-7,52.3,47.7,42.2,48.3,42.9,38.6,97,84,66,29.95,29.52,31,8,31,0.19
2013-4-8,53.6,46.6,40.9,46.2,41.9,38.4,95,84,65,30.27,29.95,9,2,9,0.05
2013-4-9,57.1,48.9,38.3,47.4,42.6,36.7,97,80,59,30.35,30.22,5,1,5,0.00
2013-4-10,52.5,52.3,52.1,47.7,47.2,46.7,84,83,81,30.23,30.18,4,0,4,0.00
2013-4-11,57.6,51.9,43.2,44.8,41.0,36.7,78,67,57,30.32,30.17,19,3,19,0.00
2013-4-12,53.3,43.7,34.7,45.2,38.8,32.8,95,83,65,30.17,29.85,16,2,16,0.07
2013-4-13,51.4,44.4,37.3,40.2,36.7,31.2,94,76,54,30.08,29.90,22,5,22,0.06
2013-4-14,53.4,43.5,40.2,43.6,39.1,36.6,95,85,59,30.07,29.92,12,3,12,0.19
2013-4-15,55.3,45.6,36.4,43.0,37.7,31.0,97,77,43,30.16,29.93,13,2,13,0.05
2013-4-16,58.5,46.2,36.1,43.1,38.8,33.3,100,78,41,30.38,30.16,15,2,15,0.06
2013-4-17,60.4,47.0,33.0,44.5,38.4,31.9,97,74,43,30.48,30.38,12,2,12,0.00
2013-4-18,59.9,51.7,45.3,48.7,42.9,39.3,94,73,55,30.47,30.29,8,2,8,0.03
2013-4-19,58.1,52.3,48.7,52.1,48.2,45.1,96,87,68,30.30,30.13,16,4,16,0.37
2013-4-20,61.0,52.3,48.0,46.4,44.0,41.6,92,74,50,30.32,30.24,10,2,10,0.00
2013-4-21,52.9,48.8,43.8,48.7,44.3,41.3,95,84,73,30.30,30.23,8,2,8,0.03
2013-4-22,65.5,51.6,37.3,42.4,35.3,23.8,100,62,22,30.42,30.30,17,4,17,0.00
2013-4-23,67.8,53.5,38.6,39.3,33.6,25.3,82,52,21,30.37,30.12,16,4,16,0.00
2013-4-24,74.3,59.0,41.1,40.0,34.8,30.5,79,44,23,30.25,29.99,17,5,17,0.00
2013-4-25,78.2,60.3,41.7,47.2,41.3,35.6,88,53,28,30.13,30.00,10,2,10,0.00
2013-4-26,78.8,60.9,43.5,50.1,43.9,29.5,96,60,17,30.23,30.13,8,2,8,0.00
2013-4-27,72.5,57.2,42.6,47.8,42.8,37.1,88,62,29,30.24,30.16,17,3,17,0.00
2013-4-28,68.1,57.9,51.0,49.4,44.9,33.3,92,65,28,30.24,30.06,13,4,13,0.01
2013-4-29,60.1,52.1,42.7,48.6,39.1,28.9,93,64,32,30.21,30.03,17,6,17,0.08
2013-4-30,57.6,46.9,38.0,40.9,35.2,31.4,86,65,39,30.43,30.21,12,3,12,0.03
2013-5-1,70.5,53.0,35.2,39.8,36.2,15.4,91,58,27,30.51,29.91,12,4,12,0.00
2013-5-2,79.3,62.6,46.8,40.5,37.1,29.4,65,42,18,30.44,30.21,17,6,17,0.00
2013-5-3,78.1,63.7,46.2,47.3,40.0,35.6,71,44,23,30.27,30.09,20,6,20,0.00
2013-5-4,82.3,67.8,52.8,48.5,38.9,30.8,72,40,16,30.12,29.88,24,6,24,0.00
2013-5-5,83.8,69.9,54.2,46.7,40.3,35.1,66,38,18,29.88,29.67,24,6,24,0.00
2013-5-6,84.3,67.1,51.5,54.9,48.9,44.1,80,55,25,29.85,29.71,10,3,10,0.00
2013-5-7,78.0,63.0,49.5,54.9,50.4,46.9,93,66,39,30.00,29.85,10,3,10,0.00
2013-5-8,69.7,58.4,50.0,53.9,50.6,47.1,92,76,56,30.13,30.00,10,1,10,0.00
2013-5-9,78.8,62.6,50.4,54.8,51.3,47.9,93,70,37,30.18,30.04,14,3,14,0.00
2013-5-10,83.0,67.9,51.4,57.9,53.9,49.1,93,64,36,30.17,30.06,9,2,9,0.00
2013-5-11,86.2,70.5,57.0,58.5,54.8,50.0,79,60,34,30.16,29.95,10,2,10,0.00
2013-5-12,69.7,63.5,57.6,60.0,57.5,55.6,95,81,65,30.09,30.02,8,1,8,0.20
2013-5-13,66.8,59.1,48.8,56.8,51.7,41.8,96,78,50,30.20,30.02,21,5,21,0.03
2013-5-14,68.5,55.6,43.0,46.0,41.6,35.8,96,63,33,30.22,30.07,9,2,9,0.00
2013-5-15,59.6,53.3,47.8,51.9,47.5,42.9,88,81,71,30.10,30.01,9,2,9,0.04
2013-5-16,63.9,56.6,52.2,55.3,52.3,50.1,95,86,66,30.01,29.91,12,2,12,0.06
2013-5-17,64.9,55.0,49.3,51.6,48.7,44.9,95,80,51,30.08,29.97,12,2,12,0.03
2013-5-18,57.4,53.0,49.7,53.1,50.3,47.6,97,91,73,30.26,30.08,8,1,8,0.24
2013-5-19,65.4,56.7,51.4,53.0,48.7,44.1,100,76,48,30.39,30.26,14,3,14,0.00
2013-5-20,74.2,58.6,46.5,50.0,46.3,42.7,91,67,34,30.33,29.88,8,2,8,0.00
2013-5-21,57.7,49.3,43.3,48.9,45.2,41.3,95,86,66,29.96,29.80,13,4,13,0.49
2013-5-22,47.5,44.7,42.0,46.4,42.7,39.6,96,93,90,29.97,29.92,15,6,15,0.85
2013-5-23,55.5,48.3,44.8,49.3,45.6,43.5,96,91,69,30.00,29.94,13,4,13,0.89
2013-5-24,58.6,51.4,46.4,51.6,47.7,45.0,97,87,68,30.07,29.95,18,4,18,0.28
2013-5-25,68.5,57.4,48.9,50.7,48.0,41.6,97,74,40,30.06,29.90,12,2,12,0.00
2013-5-26,64.2,57.5,52.9,54.1,50.9,47.6,97,80,58,30.01,29.91,14,4,14,0.17
2013-5-27,65.6,55.5,50.6,59.8,52.1,47.3,96,89,74,29.98,29.72,13,2,13,0.66
2013-5-28,65.0,56.9,51.8,52.2,48.8,44.5,94,76,50,29.92,29.74,16,4,16,0.07
2013-5-29,64.7,55.8,49.9,52.8,49.8,46.1,97,81,54,30.04,29.62,23,5,23,0.36
2013-5-30,63.2,54.7,48.2,51.4,47.7,44.1,92,78,52,30.24,30.04,14,3,14,0.07
2013-5-31,68.3,59.0,48.8,50.5,47.1,43.0,96,67,42,30.31,30.20,12,3,12,0.00
2013-6-1,75.3,61.3,46.5,55.0,50.2,44.8,96,70,45,30.22,29.99,12,2,12,0.01
2013-6-2,71.2,62.1,55.3,52.3,50.6,47.8,83,67,46,30.06,30.00,17,5,17,0.00
2013-6-3,74.7,60.5,48.3,54.4,49.8,45.8,92,70,42,30.10,30.00,13,4,13,0.00
2013-6-4,83.8,66.7,49.1,55.2,50.9,44.7,89,61,27,30.07,29.93,13,5,13,0.00
2013-6-5,82.4,70.1,55.0,60.0,54.2,49.8,84,59,37,30.05,29.93,14,5,14,0.00
2013-6-6,83.2,68.2,55.9,58.0,53.7,45.6,84,62,39,30.02,29.94,13,5,13,0.00
2013-6-7,78.3,64.9,51.1,57.7,48.6,38.3,84,59,31,30.13,30.02,16,4,16,0.00
2013-6-8,77.5,63.4,49.6,52.9,48.1,37.1,89,61,32,30.16,30.02,14,4,14,0.00
2013-6-9,72.5,60.6,50.3,50.5,47.9,44.5,87,65,39,30.09,29.95,17,6,17,0.00
2013-6-10,69.5,57.5,45.0,48.8,45.2,41.8,89,65,45,30.01,29.87,15,4,15,0.00
2013-6-11,65.3,57.8,52.6,50.9,45.6,42.8,77,64,48,30.12,29.97,12,3,12,0.02
2013-6-12,65.8,56.4,52.9,51.8,48.9,45.8,92,76,55,30.15,30.11,12,2,12,0.01
2013-6-13,62.0,55.0,50.0,55.7,51.3,47.6,96,88,74,30.27,30.15,12,3,12,0.46
2013-6-14,68.3,59.0,52.3,51.9,50.0,46.5,90,73,54,30.27,29.97,12,2,12,0.00
2013-6-15,82.0,65.5,48.3,56.6,52.2,46.9,96,66,31,29.97,29.87,10,2,10,0.00
2013-6-16,75.3,63.8,53.6,58.1,53.8,50.3,89,71,50,30.08,29.97,8,2,8,0.00
2013-6-17,77.0,65.6,52.5,54.7,51.5,47.4,91,63,38,30.08,29.90,14,3,14,0.00
2013-6-18,70.8,62.4,56.2,51.5,49.4,44.1,83,64,40,29.99,29.90,13,4,13,0.00
2013-6-19,66.8,58.9,52.2,54.1,49.3,46.8,85,71,51,30.07,29.93,12,3,12,0.02
2013-6-20,68.7,59.4,52.9,54.2,50.4,47.0,90,73,49,30.12,30.02,14,4,14,0.02
2013-6-21,70.3,61.5,54.2,53.7,50.3,47.8,85,68,48,30.15,30.09,9,1,9,0.00
2013-6-22,81.8,66.4,48.8,55.2,49.5,41.6,97,61,26,30.10,29.81,9,1,9,0.00
2013-6-23,70.2,64.3,59.2,62.4,58.5,52.3,96,82,61,29.81,29.61,9,1,9,0.58
2013-6-24,69.5,60.7,55.3,60.3,54.6,50.7,97,81,57,29.69,29.61,14,4,14,0.08
2013-6-25,69.3,61.7,56.1,61.9,56.6,53.1,97,84,63,29.85,29.66,13,2,13,0.17
2013-6-26,72.8,64.5,58.3,61.7,57.9,54.6,97,80,57,30.02,29.84,12,2,12,0.18
2013-6-27,83.0,70.5,61.6,63.7,60.6,57.9,89,73,49,30.13,29.99,10,2,10,0.00
2013-6-28,93.1,75.8,60.9,68.4,63.0,57.8,96,69,32,30.12,29.96,10,2,10,0.00
2013-6-29,89.2,76.1,61.8,63.4,60.3,57.2,86,60,37,30.07,29.92,10,2,10,0.00
2013-6-30,98.3,80.2,63.0,68.0,63.7,59.6,89,60,34,29.95,29.77,10,2,10,0.00
2013-7-1,94.4,78.8,66.8,68.8,63.9,59.9,80,62,40,29.97,29.86,9,2,9,0.00
2013-7-2,86.5,74.7,62.8,64.0,59.5,53.6,83,61,34,30.04,29.97,13,4,13,0.00
2013-7-3,84.3,70.0,59.1,56.1,51.4,39.9,81,55,22,30.11,29.98,15,4,15,0.00
2013-7-4,75.5,63.8,51.7,54.5,51.8,48.9,91,67,47,30.12,30.00,13,3,13,0.00
2013-7-5,74.5,63.4,52.7,55.3,52.1,48.3,87,68,48,30.04,29.91,14,2,14,0.00
2013-7-6,78.0,63.6,50.9,58.7,53.8,48.3,93,72,47,29.96,29.82,10,2,10,0.00
2013-7-7,78.5,64.9,55.4,60.5,56.0,52.2,90,74,52,29.95,29.84,13,3,13,0.00
2013-7-8,81.5,66.8,54.1,60.0,54.9,50.6,89,68,42,30.07,29.95,13,4,13,0.00
2013-7-9,88.2,73.6,57.9,61.8,58.7,55.0,94,63,36,30.05,29.93,14,3,14,0.00
2013-7-10,80.0,67.0,56.7,57.4,53.3,46.6,83,63,39,30.04,29.90,13,4,13,0.00
2013-7-11,75.3,63.1,49.6,50.6,47.9,45.3,88,60,38,30.07,29.92,13,4,13,0.00
2013-7-12,73.2,61.8,47.1,53.2,49.0,43.9,91,64,44,30.08,29.98,13,3,13,0.00
2013-7-13,79.8,65.7,50.4,52.4,48.0,40.8,84,56,27,30.14,29.99,16,4,16,0.00
2013-7-14,86.0,70.8,53.0,54.2,49.8,41.6,87,52,22,30.07,29.92,13,3,13,0.00
2013-7-15,85.7,69.9,54.1,54.9,49.9,44.9,81,52,32,29.99,29.76,14,4,14,0.00
2013-7-16,92.0,75.2,62.1,58.6,53.1,45.9,73,48,22,29.95,29.73,14,4,14,0.00
2013-7-17,76.8,66.7,60.4,58.6,55.4,53.4,81,68,47,30.14,29.94,12,4,12,0.00
2013-7-18,81.3,67.8,56.4,59.8,55.6,50.1,89,68,35,30.18,30.03,12,4,12,0.00
2013-7-19,81.6,67.3,56.2,62.3,57.2,52.3,88,72,50,30.12,29.96,12,4,12,0.00
2013-7-20,81.3,65.1,56.3,61.7,56.4,53.0,94,75,49,30.07,29.90,12,3,12,0.00
2013-7-21,82.3,65.7,56.2,61.7,56.3,52.6,88,74,49,29.98,29.85,12,3,12,0.00
2013-7-22,81.5,67.2,56.8,61.0,56.4,53.0,89,71,42,30.03,29.92,12,4,12,0.00
2013-7-23,88.3,71.3,58.1,62.5,59.1,55.8,93,69,36,30.01,29.89,14,3,14,0.00
2013-7-24,89.7,73.3,57.4,60.5,56.7,49.9,87,60,28,30.01,29.92,14,3,14,0.00
2013-7-25,89.3,72.6,56.9,57.9,53.6,43.7,81,55,22,30.05,29.97,14,4,14,0.00
2013-7-26,89.0,71.8,57.6,56.1,51.7,42.6,79,52,26,30.13,30.01,13,4,13,0.00
2013-7-27,80.2,65.6,52.1,53.4,51.1,48.4,89,62,35,30.17,29.97,12,3,12,0.00
2013-7-28,74.3,61.2,50.8,55.4,51.4,47.8,91,71,50,30.05,29.94,14,3,14,0.00
2013-7-29,76.0,65.5,54.6,58.2,53.6,49.3,83,67,49,29.99,29.90,9,2,9,0.00
2013-7-30,81.0,66.9,54.8,59.3,55.8,51.9,91,70,41,30.11,29.99,12,2,12,0.00
2013-7-31,78.3,66.3,58.8,60.8,57.6,55.1,90,75,51,30.09,29.97,10,2,10,0.00
2013-8-1,66.1,61.1,56.8,57.5,55.3,53.6,94,82,71,30.08,30.02,12,2,12,0.00
2013-8-2,71.2,64.3,57.9,57.7,54.6,52.1,87,72,54,30.12,30.06,8,2,8,0.00
2013-8-3,81.0,67.9,59.6,60.0,57.8,55.8,88,72,47,30.08,29.94,13,3,13,0.00
2013-8-4,89.0,72.8,56.7,64.0,60.1,54.6,94,67,37,29.99,29.85,12,2,12,0.00
2013-8-5,88.8,73.8,59.4,63.4,59.2,55.0,90,63,33,29.97,29.85,12,3,12,0.00
2013-8-6,90.8,73.5,55.0,60.6,54.3,42.2,86,55,20,29.96,29.84,9,2,9,0.00
2013-8-7,86.5,71.1,57.3,58.5,56.1,52.2,88,62,36,29.99,29.90,13,2,13,0.00
2013-8-8,82.0,68.5,59.7,63.2,57.9,54.5,87,70,49,30.02,29.86,12,2,12,0.00
2013-8-9,78.8,68.7,59.1,62.0,57.3,52.9,85,68,49,29.92,29.82,9,2,9,0.00
2013-8-10,81.6,69.7,59.7,65.9,60.7,56.8,90,74,52,29.99,29.86,8,1,8,0.00
2013-8-11,76.0,66.0,59.9,59.9,58.0,55.7,87,76,56,30.04,29.95,8,2,8,0.00
2013-8-12,79.6,67.2,56.5,59.2,56.8,53.8,93,71,47,30.04,29.96,7,2,7,0.00
2013-8-13,86.0,68.2,52.3,58.5,53.9,43.6,94,65,26,30.08,29.88,10,1,10,0.00
2013-8-14,85.7,70.2,56.5,61.6,54.7,44.1,89,62,26,29.94,29.87,9,2,9,0.00
2013-8-15,81.1,72.1,66.2,66.4,62.4,58.6,87,72,57,29.94,29.90,6,1,6,0.00
2013-8-16,86.3,72.6,64.2,66.8,63.5,58.1,94,75,47,30.01,29.91,12,2,12,0.00
2013-8-17,83.5,70.1,56.9,61.4,57.4,53.1,89,66,43,30.06,29.97,12,2,12,0.00
2013-8-18,83.2,70.2,61.7,60.6,58.0,55.3,86,67,44,30.11,30.00,10,2,10,0.00
2013-8-19,83.4,69.3,58.0,60.2,57.0,47.9,92,67,38,30.08,30.00,12,3,12,0.00
2013-8-20,81.5,66.9,51.6,57.6,52.7,47.3,93,64,35,30.10,29.95,13,3,13,0.00
2013-8-21,89.0,72.0,53.4,57.4,53.3,48.8,86,54,33,29.98,29.80,14,4,14,0.00
2013-8-22,83.7,71.4,57.9,63.9,56.3,51.4,89,60,39,29.87,29.79,9,1,9,0.03
2013-8-23,78.1,66.4,60.0,62.2,57.9,56.1,91,76,50,29.91,29.83,9,2,9,0.03
2013-8-24,77.5,67.3,61.5,60.0,56.2,51.1,89,69,45,29.89,29.81,9,2,9,0.00
2013-8-25,70.7,63.2,55.9,61.3,56.8,51.9,93,80,66,29.91,29.86,6,1,6,0.10
2013-8-26,79.2,66.5,58.7,60.8,56.9,48.3,96,75,36,29.94,29.86,17,3,17,0.05
2013-8-27,83.5,70.2,60.9,63.7,60.5,58.4,95,73,46,29.94,29.75,8,1,8,0.00
2013-8-28,82.3,71.7,61.6,65.6,61.3,57.9,95,71,50,29.87,29.81,8,1,8,0.03
2013-8-29,78.5,70.0,64.5,67.0,63.8,61.3,97,82,60,30.03,29.80,18,3,18,0.32
2013-8-30,83.0,71.5,63.2,63.8,60.6,56.8,94,71,44,30.11,30.00,10,2,10,0.00
2013-8-31,90.3,72.3,57.9,61.5,59.0,56.4,96,67,35,30.01,29.76,9,2,9,0.00
2013-9-1,85.3,70.8,57.3,60.4,56.1,52.6,87,62,34,29.88,29.75,12,2,12,0.00
2013-9-2,81.5,71.4,62.3,61.7,57.6,54.1,85,63,41,29.89,29.83,12,2,12,0.00
2013-9-3,80.2,68.9,59.5,62.9,58.9,54.8,96,73,44,29.96,29.89,10,1,10,0.13
2013-9-4,73.5,67.1,60.7,61.7,59.4,57.3,90,77,64,30.02,29.94,6,1,6,0.00
2013-9-5,66.3,62.6,57.5,62.1,59.5,56.3,96,90,81,30.01,29.93,17,2,17,0.54
2013-9-6,69.5,62.5,57.3,61.2,58.5,55.4,97,88,68,30.10,29.99,17,5,17,1.04
2013-9-7,69.9,59.2,52.8,58.7,56.0,52.0,100,90,70,30.10,29.99,17,1,17,1.04
2013-9-8,70.1,62.7,59.0,61.2,58.9,57.4,95,88,73,30.07,29.88,7,1,7,0.00